createdAt,value
2019-04-26T00:00:05.420Z,19.88
2019-04-26T00:01:05.405Z,19.91
2019-04-26T00:02:05.425Z,19.91
2019-04-26T00:03:05.414Z,19.91
2019-04-26T00:04:05.373Z,19.91
2019-04-26T00:05:05.365Z,19.88
2019-04-26T00:06:05.358Z,19.91
2019-04-26T00:07:05.344Z,19.88
2019-04-26T00:08:05.366Z,19.91
2019-04-26T00:09:05.323Z,19.91
2019-04-26T00:10:05.314Z,19.88
2019-04-26T00:11:05.331Z,19.88
2019-04-26T00:12:05.286Z,19.88
2019-04-26T00:13:05.275Z,19.88
2019-04-26T00:14:05.271Z,19.88
2019-04-26T00:15:05.292Z,19.91
2019-04-26T00:16:05.249Z,19.88
2019-04-26T00:17:05.239Z,19.88
2019-04-26T00:18:05.224Z,19.91
2019-04-26T00:19:05.213Z,19.88
2019-04-26T00:20:05.243Z,19.88
2019-04-26T00:21:05.192Z,19.88
2019-04-26T00:22:05.178Z,19.88
2019-04-26T00:23:05.167Z,19.88
2019-04-26T00:24:05.159Z,19.88
2019-04-26T00:25:05.195Z,19.88
2019-04-26T00:26:05.143Z,19.87
2019-04-26T00:27:05.131Z,19.88
2019-04-26T00:28:05.119Z,19.88
2019-04-26T00:29:05.106Z,19.88
2019-04-26T00:30:05.136Z,19.87
2019-04-26T00:31:05.081Z,19.88
2019-04-26T00:32:05.073Z,19.88
2019-04-26T00:33:05.064Z,19.88
2019-04-26T00:34:05.050Z,19.88
2019-04-26T00:35:05.066Z,19.88
2019-04-26T00:36:05.031Z,19.87
2019-04-26T00:37:05.040Z,19.88
2019-04-26T00:38:05.009Z,19.87
2019-04-26T00:39:04.999Z,19.87
2019-04-26T00:40:04.986Z,19.88
2019-04-26T00:41:05.021Z,19.87
2019-04-26T00:42:04.994Z,19.87
2019-04-26T00:43:04.957Z,19.87
2019-04-26T00:44:04.949Z,19.87
2019-04-26T00:45:04.929Z,19.87
2019-04-26T00:46:04.956Z,19.86
2019-04-26T00:47:04.913Z,19.86
2019-04-26T00:48:04.907Z,19.87
2019-04-26T00:49:04.890Z,19.87
2019-04-26T00:50:04.881Z,19.88
2019-04-26T00:51:04.901Z,19.86
2019-04-26T00:52:04.894Z,19.87
2019-04-26T00:53:04.849Z,19.87
2019-04-26T00:54:04.842Z,19.86
2019-04-26T00:55:04.827Z,19.87
2019-04-26T00:56:04.817Z,19.87
2019-04-26T00:57:04.838Z,19.87
2019-04-26T00:58:04.795Z,19.87
2019-04-26T00:59:04.786Z,19.87
2019-04-26T01:00:04.775Z,19.87
2019-04-26T01:01:04.767Z,19.87
2019-04-26T01:02:04.783Z,19.86
2019-04-26T01:03:04.744Z,19.84
2019-04-26T01:04:04.733Z,19.87
2019-04-26T01:05:04.723Z,19.86
2019-04-26T01:06:04.742Z,19.87
2019-04-26T01:07:04.698Z,19.86
2019-04-26T01:08:04.719Z,19.86
2019-04-26T01:09:04.676Z,19.86
2019-04-26T01:10:04.674Z,19.86
2019-04-26T01:11:04.655Z,19.86
2019-04-26T01:12:04.685Z,19.84
2019-04-26T01:13:04.641Z,19.86
2019-04-26T01:14:04.623Z,19.86
2019-04-26T01:15:04.641Z,19.84
2019-04-26T01:16:04.597Z,19.86
2019-04-26T01:17:04.590Z,19.84
2019-04-26T01:18:04.584Z,19.84
2019-04-26T01:19:04.565Z,19.86
2019-04-26T01:20:04.600Z,19.86
2019-04-26T01:21:04.546Z,19.84
2019-04-26T01:22:04.536Z,19.86
2019-04-26T01:23:04.527Z,19.86
2019-04-26T01:24:04.513Z,19.86
2019-04-26T01:25:04.533Z,19.86
2019-04-26T01:26:04.493Z,19.84
2019-04-26T01:27:04.479Z,19.84
2019-04-26T01:28:04.471Z,19.86
2019-04-26T01:29:04.460Z,19.86
2019-04-26T01:30:04.483Z,19.86
2019-04-26T01:31:04.437Z,19.86
2019-04-26T01:32:04.428Z,19.84
2019-04-26T01:33:04.415Z,19.83
2019-04-26T01:34:04.411Z,19.84
2019-04-26T01:35:04.427Z,19.84
2019-04-26T01:36:12.866Z,19.86
2019-04-26T01:37:05.378Z,19.86
2019-04-26T01:38:04.370Z,19.84
2019-04-26T01:39:04.377Z,19.84
2019-04-26T01:40:04.369Z,19.86
2019-04-26T01:41:04.329Z,19.84
2019-04-26T01:42:04.322Z,19.84
2019-04-26T01:43:04.340Z,19.84
2019-04-26T01:44:04.330Z,19.84
2019-04-26T01:45:04.298Z,19.84
2019-04-26T01:46:04.287Z,19.84
2019-04-26T01:47:04.299Z,19.83
2019-04-26T01:48:04.259Z,19.83
2019-04-26T01:49:04.276Z,19.84
2019-04-26T01:50:04.236Z,19.84
2019-04-26T01:51:04.222Z,19.83
2019-04-26T01:52:04.218Z,19.84
2019-04-26T01:53:04.212Z,19.84
2019-04-26T01:54:04.228Z,19.84
2019-04-26T01:55:04.184Z,19.84
2019-04-26T01:56:04.175Z,19.86
2019-04-26T01:57:04.162Z,19.84
2019-04-26T01:58:04.161Z,19.84
2019-04-26T01:59:04.172Z,19.84
2019-04-26T02:00:04.130Z,19.84
2019-04-26T02:01:04.120Z,19.86
2019-04-26T02:02:04.139Z,19.86
2019-04-26T02:03:04.098Z,19.84
2019-04-26T02:04:04.083Z,19.84
2019-04-26T02:05:04.076Z,19.84
2019-04-26T02:06:04.093Z,19.84
2019-04-26T02:07:04.086Z,19.84
2019-04-26T02:08:04.037Z,19.84
2019-04-26T02:09:04.027Z,19.84
2019-04-26T02:10:04.043Z,19.84
2019-04-26T02:11:04.007Z,19.84
2019-04-26T02:12:03.999Z,19.84
2019-04-26T02:13:04.018Z,19.84
2019-04-26T02:14:03.973Z,19.84
2019-04-26T02:15:03.965Z,19.84
2019-04-26T02:16:03.984Z,19.86
2019-04-26T02:17:03.949Z,19.84
2019-04-26T02:18:03.960Z,19.84
2019-04-26T02:19:03.918Z,19.83
2019-04-26T02:20:03.913Z,19.84
2019-04-26T02:21:03.903Z,19.83
2019-04-26T02:22:03.893Z,19.83
2019-04-26T02:23:03.914Z,19.84
2019-04-26T02:24:03.863Z,19.84
2019-04-26T02:25:03.856Z,19.83
2019-04-26T02:26:03.882Z,19.83
2019-04-26T02:27:03.833Z,19.84
2019-04-26T02:28:03.827Z,19.84
2019-04-26T02:29:03.810Z,19.84
2019-04-26T02:30:03.808Z,19.84
2019-04-26T02:31:03.841Z,19.84
2019-04-26T02:32:03.797Z,19.83
2019-04-26T02:33:03.772Z,19.84
2019-04-26T02:34:03.762Z,19.84
2019-04-26T02:35:03.754Z,19.83
2019-04-26T02:36:03.778Z,19.84
2019-04-26T02:37:03.757Z,19.83
2019-04-26T02:38:03.713Z,19.83
2019-04-26T02:39:03.711Z,19.83
2019-04-26T02:40:03.774Z,19.83
2019-04-26T02:41:03.683Z,19.81
2019-04-26T02:42:03.724Z,19.83
2019-04-26T02:43:03.665Z,19.83
2019-04-26T02:44:03.659Z,19.83
2019-04-26T02:45:03.643Z,19.81
2019-04-26T02:46:03.639Z,19.83
2019-04-26T02:47:03.654Z,19.83
2019-04-26T02:48:03.603Z,19.81
2019-04-26T02:49:03.599Z,19.83
2019-04-26T02:50:03.587Z,19.83
2019-04-26T02:51:03.598Z,19.83
2019-04-26T02:52:03.631Z,19.83
2019-04-26T02:53:03.555Z,19.83
2019-04-26T02:54:03.546Z,19.81
2019-04-26T02:55:03.537Z,19.81
2019-04-26T02:56:03.523Z,19.81
2019-04-26T02:57:03.550Z,19.83
2019-04-26T02:58:03.503Z,19.81
2019-04-26T02:59:03.490Z,19.81
2019-04-26T03:00:03.482Z,19.81
2019-04-26T03:01:03.497Z,19.83
2019-04-26T03:02:03.470Z,19.81
2019-04-26T03:03:03.451Z,19.81
2019-04-26T03:04:03.469Z,19.81
2019-04-26T03:05:03.422Z,19.81
2019-04-26T03:06:03.420Z,19.80
2019-04-26T03:07:04.033Z,19.81
2019-04-26T03:08:03.394Z,19.81
2019-04-26T03:09:03.399Z,19.80
2019-04-26T03:10:03.369Z,19.81
2019-04-26T03:11:03.376Z,19.81
2019-04-26T03:12:03.384Z,19.80
2019-04-26T03:13:03.342Z,19.80
2019-04-26T03:14:03.332Z,19.81
2019-04-26T03:15:13.399Z,19.80
2019-04-26T03:16:04.317Z,19.78
2019-04-26T03:17:03.333Z,19.81
2019-04-26T03:18:03.325Z,19.80
2019-04-26T03:19:03.273Z,19.81
2019-04-26T03:20:03.270Z,19.80
2019-04-26T03:21:03.253Z,19.81
2019-04-26T03:22:03.259Z,19.80
2019-04-26T03:23:03.269Z,19.83
2019-04-26T03:24:03.221Z,19.80
2019-04-26T03:25:03.229Z,19.80
2019-04-26T03:26:03.201Z,19.81
2019-04-26T03:27:03.192Z,19.80
2019-04-26T03:28:03.224Z,19.81
2019-04-26T03:29:03.169Z,19.81
2019-04-26T03:30:18.383Z,19.81
2019-04-26T03:31:04.147Z,19.80
2019-04-26T03:32:03.140Z,19.81
2019-04-26T03:33:03.228Z,19.81
2019-04-26T03:34:03.191Z,19.80
2019-04-26T03:35:03.181Z,19.80
2019-04-26T03:36:03.094Z,19.81
2019-04-26T03:37:19.369Z,19.80
2019-04-26T03:38:04.070Z,19.80
2019-04-26T03:39:03.059Z,19.80
2019-04-26T03:40:03.098Z,19.80
2019-04-26T03:41:03.063Z,19.80
2019-04-26T03:42:03.031Z,19.80
2019-04-26T03:43:03.017Z,19.81
2019-04-26T03:44:03.024Z,19.78
2019-04-26T03:45:03.004Z,19.80
2019-04-26T03:46:03.025Z,19.80
2019-04-26T03:47:03.001Z,19.80
2019-04-26T03:48:02.958Z,19.80
2019-04-26T03:49:02.977Z,19.80
2019-04-26T03:50:02.944Z,19.78
2019-04-26T03:51:02.931Z,19.78
2019-04-26T03:52:02.948Z,19.80
2019-04-26T03:53:02.909Z,19.78
2019-04-26T03:54:02.898Z,19.78
2019-04-26T03:55:02.882Z,19.80
2019-04-26T03:56:02.924Z,19.77
2019-04-26T03:57:02.869Z,19.78
2019-04-26T03:58:02.858Z,19.80
2019-04-26T03:59:02.843Z,19.78
2019-04-26T04:00:02.845Z,19.78
2019-04-26T04:01:02.847Z,19.78
2019-04-26T04:02:02.811Z,19.78
2019-04-26T04:03:02.827Z,19.78
2019-04-26T04:04:02.825Z,19.78
2019-04-26T04:05:02.775Z,19.78
2019-04-26T04:06:02.771Z,19.78
2019-04-26T04:07:04.736Z,19.78
2019-04-26T04:08:02.743Z,19.78
2019-04-26T04:09:02.765Z,19.78
2019-04-26T04:10:02.729Z,19.78
2019-04-26T04:11:02.716Z,19.78
2019-04-26T04:12:11.656Z,19.78
2019-04-26T04:13:03.760Z,19.78
2019-04-26T04:14:02.928Z,19.80
2019-04-26T04:15:02.704Z,19.78
2019-04-26T04:16:02.661Z,19.78
2019-04-26T04:17:02.651Z,19.78
2019-04-26T04:18:02.668Z,19.78
2019-04-26T04:19:02.625Z,19.80
2019-04-26T04:20:02.635Z,19.80
2019-04-26T04:21:02.605Z,19.78
2019-04-26T04:22:02.593Z,19.80
2019-04-26T04:23:02.631Z,19.77
2019-04-26T04:24:02.574Z,19.78
2019-04-26T04:25:02.569Z,19.77
2019-04-26T04:26:02.557Z,19.78
2019-04-26T04:27:02.542Z,19.77
2019-04-26T04:28:03.423Z,19.78
2019-04-26T04:29:02.521Z,19.78
2019-04-26T04:30:02.512Z,19.77
2019-04-26T04:31:02.497Z,19.78
2019-04-26T04:32:02.527Z,19.78
2019-04-26T04:33:02.476Z,19.78
2019-04-26T04:34:02.517Z,19.78
2019-04-26T04:35:06.350Z,19.77
2019-04-26T04:36:02.475Z,19.78
2019-04-26T04:37:02.435Z,19.77
2019-04-26T04:38:09.298Z,19.77
2019-04-26T04:39:11.370Z,19.78
2019-04-26T04:40:03.400Z,19.77
2019-04-26T04:41:02.391Z,19.77
2019-04-26T04:42:02.379Z,19.77
2019-04-26T04:43:02.559Z,19.77
2019-04-26T04:44:02.359Z,19.77
2019-04-26T04:45:02.581Z,19.77
2019-04-26T04:46:02.420Z,19.77
2019-04-26T04:47:02.334Z,19.77
2019-04-26T04:48:02.320Z,19.76
2019-04-26T04:49:02.313Z,19.77
2019-04-26T04:50:02.322Z,19.76
2019-04-26T04:51:02.282Z,19.76
2019-04-26T04:52:02.272Z,19.77
2019-04-26T04:53:02.271Z,19.77
2019-04-26T04:54:02.250Z,19.77
2019-04-26T04:55:07.462Z,19.77
2019-04-26T04:56:03.233Z,19.77
2019-04-26T04:57:02.220Z,19.77
2019-04-26T04:58:02.209Z,19.76
2019-04-26T04:59:02.192Z,19.77
2019-04-26T05:00:02.230Z,19.77
2019-04-26T05:01:02.172Z,19.76
2019-04-26T05:02:02.159Z,19.76
2019-04-26T05:03:02.158Z,19.76
2019-04-26T05:04:02.140Z,19.76
2019-04-26T05:05:02.183Z,19.74
2019-04-26T05:06:07.630Z,19.76
2019-04-26T05:07:03.120Z,19.76
2019-04-26T05:08:06.814Z,19.76
2019-04-26T05:09:02.091Z,19.77
2019-04-26T05:10:02.073Z,19.76
2019-04-26T05:11:02.071Z,19.77
2019-04-26T05:12:02.054Z,19.74
2019-04-26T05:13:02.087Z,19.76
2019-04-26T05:14:02.037Z,19.77
2019-04-26T05:15:02.027Z,19.74
2019-04-26T05:16:02.009Z,19.76
2019-04-26T05:17:02.024Z,19.76
2019-04-26T05:18:02.023Z,19.76
2019-04-26T05:19:01.982Z,19.74
2019-04-26T05:20:01.979Z,19.76
2019-04-26T05:21:01.954Z,19.76
2019-04-26T05:22:01.963Z,19.76
2019-04-26T05:23:01.984Z,19.77
2019-04-26T05:24:01.933Z,19.76
2019-04-26T05:25:01.920Z,19.76
2019-04-26T05:26:01.900Z,19.77
2019-04-26T05:27:01.892Z,19.76
2019-04-26T05:28:01.914Z,19.76
2019-04-26T05:29:01.873Z,19.76
2019-04-26T05:30:01.865Z,19.76
2019-04-26T05:31:01.889Z,19.76
2019-04-26T05:32:01.837Z,19.76
2019-04-26T05:33:01.829Z,19.74
2019-04-26T05:34:01.823Z,19.76
2019-04-26T05:35:01.815Z,19.74
2019-04-26T05:36:01.826Z,19.76
2019-04-26T05:37:01.790Z,19.74
2019-04-26T05:38:01.773Z,19.76
2019-04-26T05:39:01.773Z,19.74
2019-04-26T05:40:01.749Z,19.74
2019-04-26T05:41:01.769Z,19.74
2019-04-26T05:42:01.728Z,19.74
2019-04-26T05:43:01.750Z,19.76
2019-04-26T05:44:01.710Z,19.74
2019-04-26T05:45:01.704Z,19.74
2019-04-26T05:46:02.359Z,19.74
2019-04-26T05:47:01.712Z,19.74
2019-04-26T05:48:10.707Z,19.74
2019-04-26T05:49:02.679Z,19.76
2019-04-26T05:50:02.472Z,19.76
2019-04-26T05:51:02.217Z,19.76
2019-04-26T05:52:02.152Z,19.74
2019-04-26T05:53:01.893Z,19.74
2019-04-26T05:54:01.600Z,19.74
2019-04-26T05:55:02.589Z,19.74
2019-04-26T05:56:02.497Z,19.76
2019-04-26T05:57:02.584Z,19.73
2019-04-26T05:58:02.791Z,19.74
2019-04-26T05:59:02.842Z,19.74
2019-04-26T06:00:01.544Z,19.74
2019-04-26T06:01:01.961Z,19.74
2019-04-26T06:02:01.515Z,19.74
2019-04-26T06:03:01.501Z,19.76
2019-04-26T06:04:02.592Z,19.74
2019-04-26T06:05:01.593Z,19.74
2019-04-26T06:06:04.255Z,19.74
2019-04-26T06:07:01.464Z,19.73
2019-04-26T06:08:01.454Z,19.73
2019-04-26T06:09:01.767Z,19.74
2019-04-26T06:10:01.429Z,19.74
2019-04-26T06:11:02.617Z,19.73
2019-04-26T06:12:01.405Z,19.74
2019-04-26T06:13:01.399Z,19.74
2019-04-26T06:14:01.991Z,19.74
2019-04-26T06:15:01.382Z,19.73
2019-04-26T06:16:02.388Z,19.74
2019-04-26T06:17:01.434Z,19.74
2019-04-26T06:18:01.793Z,19.74
2019-04-26T06:19:01.728Z,19.74
2019-04-26T06:20:02.480Z,19.74
2019-04-26T06:21:02.112Z,19.74
2019-04-26T06:22:02.158Z,19.74
2019-04-26T06:23:02.069Z,19.74
2019-04-26T06:24:02.094Z,19.73
2019-04-26T06:25:01.272Z,19.73
2019-04-26T06:26:03.014Z,19.73
2019-04-26T06:27:12.168Z,19.74
2019-04-26T06:28:02.737Z,19.74
2019-04-26T06:29:01.222Z,19.74
2019-04-26T06:30:01.342Z,19.74
2019-04-26T06:31:01.412Z,19.74
2019-04-26T06:32:01.194Z,19.74
2019-04-26T06:33:04.422Z,19.74
2019-04-26T06:34:01.171Z,19.76
2019-04-26T06:35:01.420Z,19.74
2019-04-26T06:36:01.781Z,19.74
2019-04-26T06:37:02.192Z,19.74
2019-04-26T06:38:01.860Z,19.76
2019-04-26T06:39:02.087Z,19.73
2019-04-26T06:40:02.205Z,19.74
2019-04-26T06:41:02.417Z,19.74
2019-04-26T06:42:01.121Z,19.76
2019-04-26T06:43:01.072Z,19.74
2019-04-26T06:44:01.063Z,19.74
2019-04-26T06:45:01.047Z,19.74
2019-04-26T06:46:01.073Z,19.74
2019-04-26T06:47:01.834Z,19.77
2019-04-26T06:48:01.835Z,19.76
2019-04-26T06:49:01.052Z,19.74
2019-04-26T06:50:01.404Z,19.73
2019-04-26T06:51:00.986Z,19.74
2019-04-26T06:52:01.008Z,19.74
2019-04-26T06:53:01.548Z,19.76
2019-04-26T06:54:00.965Z,19.76
2019-04-26T06:55:02.202Z,19.74
2019-04-26T06:56:00.978Z,19.74
2019-04-26T06:57:11.578Z,19.76
2019-04-26T06:58:02.832Z,19.74
2019-04-26T06:59:01.337Z,19.74
2019-04-26T07:00:02.239Z,19.74
2019-04-26T07:01:01.114Z,19.74
2019-04-26T07:02:00.963Z,19.76
2019-04-26T07:03:01.103Z,19.74
2019-04-26T07:04:02.011Z,19.74
2019-04-26T07:05:00.833Z,19.76
2019-04-26T07:06:00.827Z,19.74
2019-04-26T07:07:00.945Z,19.74
2019-04-26T07:08:00.805Z,19.74
2019-04-26T07:09:02.175Z,19.76
2019-04-26T07:10:01.871Z,19.74
2019-04-26T07:11:00.841Z,19.73
2019-04-26T07:12:00.843Z,19.74
2019-04-26T07:13:00.997Z,19.74
2019-04-26T07:14:00.764Z,19.74
2019-04-26T07:15:02.207Z,19.74
2019-04-26T07:16:03.784Z,19.74
2019-04-26T07:17:02.519Z,19.74
2019-04-26T07:18:00.901Z,19.74
2019-04-26T07:19:01.308Z,19.74
2019-04-26T07:20:01.440Z,19.73
2019-04-26T07:21:00.664Z,19.73
2019-04-26T07:22:00.677Z,19.73
2019-04-26T07:23:01.978Z,19.73
2019-04-26T07:24:01.195Z,19.74
2019-04-26T07:25:01.484Z,19.73
2019-04-26T07:26:01.643Z,19.73
2019-04-26T07:27:01.423Z,19.74
2019-04-26T07:28:06.130Z,19.74
2019-04-26T07:29:02.958Z,19.71
2019-04-26T07:30:02.330Z,19.74
2019-04-26T07:31:01.506Z,19.73
2019-04-26T07:32:00.889Z,19.73
2019-04-26T07:33:01.459Z,19.73
2019-04-26T07:34:00.795Z,19.73
2019-04-26T07:35:01.118Z,19.73
2019-04-26T07:36:01.203Z,19.71
2019-04-26T07:37:01.892Z,19.71
2019-04-26T07:38:01.296Z,19.74
2019-04-26T07:39:13.291Z,19.73
2019-04-26T07:40:01.496Z,19.73
2019-04-26T07:41:01.485Z,19.73
2019-04-26T07:42:01.555Z,19.74
2019-04-26T07:43:01.692Z,19.73
2019-04-26T07:44:01.010Z,19.73
2019-04-26T07:45:01.987Z,19.73
2019-04-26T07:46:01.339Z,19.73
2019-04-26T07:47:01.536Z,19.71
2019-04-26T07:48:00.378Z,19.73
2019-04-26T07:49:00.405Z,19.73
2019-04-26T07:50:00.357Z,19.71
2019-04-26T07:51:00.372Z,19.74
2019-04-26T07:52:00.334Z,19.73
2019-04-26T07:53:00.327Z,19.73
2019-04-26T07:54:00.318Z,19.73
2019-04-26T07:55:00.349Z,19.73
2019-04-26T07:56:00.295Z,19.74
2019-04-26T07:57:00.279Z,19.73
2019-04-26T07:58:00.276Z,19.73
2019-04-26T07:59:02.769Z,19.73
2019-04-26T08:00:00.296Z,19.74
2019-04-26T08:01:00.242Z,19.74
2019-04-26T08:02:00.235Z,19.73
2019-04-26T08:03:00.217Z,19.74
2019-04-26T08:04:00.209Z,19.73
2019-04-26T08:05:00.226Z,19.74
2019-04-26T08:06:00.189Z,19.73
2019-04-26T08:07:00.179Z,19.74
2019-04-26T08:08:00.170Z,19.74
2019-04-26T08:09:00.152Z,19.74
2019-04-26T08:10:00.238Z,19.74
2019-04-26T08:11:00.145Z,19.74
2019-04-26T08:12:00.142Z,19.74
2019-04-26T08:13:00.112Z,19.76
2019-04-26T08:14:00.097Z,19.76
2019-04-26T08:15:00.140Z,19.76
2019-04-26T08:16:00.086Z,19.76
2019-04-26T08:17:00.067Z,19.74
2019-04-26T08:18:00.055Z,19.74
2019-04-26T08:19:00.220Z,19.74
2019-04-26T08:20:00.078Z,19.76
2019-04-26T08:21:02.450Z,19.76
2019-04-26T08:22:15.171Z,19.74
2019-04-26T08:23:02.752Z,19.76
2019-04-26T08:24:00.992Z,19.76
2019-04-26T08:25:00.030Z,19.76
2019-04-26T08:25:59.970Z,19.76
2019-04-26T08:27:08.844Z,19.77
2019-04-26T08:28:00.955Z,19.77
2019-04-26T08:29:00.561Z,19.76
2019-04-26T08:30:03.324Z,19.76
2019-04-26T08:31:00.947Z,19.78
2019-04-26T08:31:59.910Z,19.78
2019-04-26T08:33:02.082Z,19.76
2019-04-26T08:34:00.887Z,19.77
2019-04-26T08:35:02.317Z,19.77
2019-04-26T08:36:00.902Z,19.77
2019-04-26T08:37:01.953Z,19.77
2019-04-26T08:37:59.850Z,19.78
2019-04-26T08:38:59.832Z,19.76
2019-04-26T08:39:59.828Z,19.78
2019-04-26T08:41:00.373Z,19.77
2019-04-26T08:41:59.838Z,19.77
2019-04-26T08:42:59.818Z,19.77
2019-04-26T08:44:03.283Z,19.77
2019-04-26T08:45:04.722Z,19.77
2019-04-26T08:46:03.084Z,19.77
2019-04-26T08:46:59.756Z,19.78
2019-04-26T08:47:59.741Z,19.78
2019-04-26T08:49:02.152Z,19.77
2019-04-26T08:49:59.718Z,19.77
2019-04-26T08:50:59.740Z,19.78
2019-04-26T08:51:59.697Z,19.77
2019-04-26T08:52:59.685Z,19.78
2019-04-26T08:53:59.700Z,19.78
2019-04-26T08:54:59.670Z,19.78
2019-04-26T08:55:59.652Z,19.78
2019-04-26T08:56:59.673Z,19.78
2019-04-26T08:57:59.638Z,19.78
2019-04-26T08:58:59.629Z,19.78
2019-04-26T08:59:59.612Z,19.80
2019-04-26T09:00:59.607Z,19.78
2019-04-26T09:01:59.625Z,19.80
2019-04-26T09:03:10.923Z,19.78
2019-04-26T09:04:00.580Z,19.80
2019-04-26T09:04:59.561Z,19.80
2019-04-26T09:05:59.580Z,19.78
2019-04-26T09:06:59.542Z,19.80
2019-04-26T09:07:59.525Z,19.80
2019-04-26T09:08:59.547Z,19.80
2019-04-26T09:10:01.558Z,19.80
2019-04-26T09:11:00.529Z,19.80
2019-04-26T09:12:00.179Z,19.80
2019-04-26T09:12:59.478Z,19.81
2019-04-26T09:13:59.468Z,19.81
2019-04-26T09:14:59.452Z,19.81
2019-04-26T09:15:59.511Z,19.81
2019-04-26T09:16:59.465Z,19.83
2019-04-26T09:18:02.127Z,19.83
2019-04-26T09:18:59.904Z,19.83
2019-04-26T09:20:06.978Z,19.83
2019-04-26T09:21:00.388Z,19.83
2019-04-26T09:22:12.197Z,19.83
2019-04-26T09:23:03.823Z,19.83
2019-04-26T09:23:59.394Z,19.83
2019-04-26T09:25:00.850Z,19.84
2019-04-26T09:25:59.584Z,19.84
2019-04-26T09:26:59.326Z,19.84
2019-04-26T09:27:59.346Z,19.86
2019-04-26T09:28:59.301Z,19.84
2019-04-26T09:30:00.597Z,19.86
2019-04-26T09:31:00.286Z,19.86
2019-04-26T09:31:59.273Z,19.86
2019-04-26T09:33:01.991Z,19.84
2019-04-26T09:33:59.250Z,19.84
2019-04-26T09:34:59.273Z,19.84
2019-04-26T09:35:59.236Z,19.86
2019-04-26T09:36:59.216Z,19.86
2019-04-26T09:37:59.213Z,19.84
2019-04-26T09:38:59.195Z,19.86
2019-04-26T09:40:09.532Z,19.86
2019-04-26T09:41:00.593Z,19.84
2019-04-26T09:42:01.140Z,19.86
2019-04-26T09:43:02.495Z,19.83
2019-04-26T09:44:00.336Z,19.84
2019-04-26T09:44:59.136Z,19.84
2019-04-26T09:45:59.170Z,19.86
2019-04-26T09:46:59.116Z,19.86
2019-04-26T09:47:59.097Z,19.84
2019-04-26T09:48:59.093Z,19.84
2019-04-26T09:49:59.080Z,19.84
2019-04-26T09:50:59.106Z,19.84
2019-04-26T09:51:59.054Z,19.84
2019-04-26T09:52:59.049Z,19.86
2019-04-26T09:53:59.032Z,19.86
2019-04-26T09:54:59.029Z,19.86
2019-04-26T09:55:59.045Z,19.86
2019-04-26T09:56:59.031Z,19.84
2019-04-26T09:57:58.998Z,19.86
2019-04-26T09:59:01.503Z,19.86
2019-04-26T09:59:59.976Z,19.84
2019-04-26T10:00:59.005Z,19.86
2019-04-26T10:01:59.437Z,19.84
2019-04-26T10:02:58.935Z,19.84
2019-04-26T10:03:58.926Z,19.84
2019-04-26T10:04:58.919Z,19.86
2019-04-26T10:05:58.949Z,19.84
2019-04-26T10:06:59.523Z,19.86
2019-04-26T10:07:58.888Z,19.86
2019-04-26T10:08:58.875Z,19.84
2019-04-26T10:10:00.905Z,19.86
2019-04-26T10:10:58.853Z,19.86
2019-04-26T10:11:58.850Z,19.86
2019-04-26T10:12:58.863Z,19.86
2019-04-26T10:13:58.818Z,19.86
2019-04-26T10:14:58.813Z,19.87
2019-04-26T10:16:02.535Z,19.86
2019-04-26T10:16:58.786Z,19.87
2019-04-26T10:17:58.811Z,19.86
2019-04-26T10:18:59.448Z,19.87
2019-04-26T10:19:58.772Z,19.87
2019-04-26T10:20:58.746Z,19.87
2019-04-26T10:21:58.735Z,19.88
2019-04-26T10:22:58.723Z,19.87
2019-04-26T10:23:58.742Z,19.88
2019-04-26T10:25:02.352Z,19.88
2019-04-26T10:25:59.689Z,19.88
2019-04-26T10:26:59.186Z,19.88
2019-04-26T10:27:58.665Z,19.91
2019-04-26T10:28:58.694Z,19.92
2019-04-26T10:30:07.762Z,19.92
2019-04-26T10:30:59.636Z,19.92
2019-04-26T10:31:58.630Z,19.94
2019-04-26T10:33:02.244Z,19.95
2019-04-26T10:33:58.635Z,19.95
2019-04-26T10:34:58.596Z,19.95
2019-04-26T10:35:58.583Z,19.98
2019-04-26T10:37:01.573Z,19.98
2019-04-26T10:37:59.557Z,19.98
2019-04-26T10:38:59.500Z,19.98
2019-04-26T10:39:58.539Z,19.98
2019-04-26T10:40:58.533Z,19.98
2019-04-26T10:41:58.521Z,19.95
2019-04-26T10:42:58.511Z,19.96
2019-04-26T10:43:58.541Z,19.96
2019-04-26T10:44:58.490Z,19.96
2019-04-26T10:45:58.474Z,19.96
2019-04-26T10:46:59.932Z,19.96
2019-04-26T10:47:59.450Z,19.96
2019-04-26T10:49:08.197Z,19.98
2019-04-26T10:49:59.460Z,19.98
2019-04-26T10:50:58.424Z,19.98
2019-04-26T10:51:58.413Z,19.98
2019-04-26T10:52:58.396Z,19.98
2019-04-26T10:54:01.779Z,19.98
2019-04-26T10:54:59.374Z,19.98
2019-04-26T10:55:58.363Z,19.98
2019-04-26T10:56:58.358Z,19.99
2019-04-26T10:57:58.349Z,19.98
2019-04-26T10:58:58.365Z,19.99
2019-04-26T10:59:58.320Z,20.01
2019-04-26T11:00:58.349Z,20.01
2019-04-26T11:01:58.303Z,20.01
2019-04-26T11:03:00.097Z,20.01
2019-04-26T11:03:59.276Z,20.03
2019-04-26T11:04:58.273Z,20.01
2019-04-26T11:05:58.294Z,20.02
2019-04-26T11:07:01.983Z,20.03
2019-04-26T11:07:59.233Z,20.03
2019-04-26T11:08:58.230Z,20.02
2019-04-26T11:09:58.213Z,20.02
2019-04-26T11:10:58.240Z,20.02
2019-04-26T11:11:58.197Z,20.03
2019-04-26T11:12:58.188Z,20.02
2019-04-26T11:13:58.177Z,20.03
2019-04-26T11:14:58.272Z,20.02
2019-04-26T11:15:58.153Z,20.02
2019-04-26T11:16:58.136Z,20.02
2019-04-26T11:17:58.133Z,19.99
2019-04-26T11:19:01.092Z,20.01
2019-04-26T11:19:58.151Z,20.01
2019-04-26T11:20:58.096Z,20.01
2019-04-26T11:21:58.091Z,20.01
2019-04-26T11:22:58.072Z,20.01
2019-04-26T11:23:58.068Z,20.01
2019-04-26T11:24:58.096Z,20.01
2019-04-26T11:26:01.523Z,20.02
2019-04-26T11:26:58.033Z,20.01
2019-04-26T11:27:58.027Z,20.02
2019-04-26T11:28:58.009Z,20.01
2019-04-26T11:30:00.036Z,20.01
2019-04-26T11:30:58.984Z,20.02
2019-04-26T11:31:58.405Z,20.01
2019-04-26T11:32:57.971Z,20.01
2019-04-26T11:34:05.174Z,20.01
2019-04-26T11:35:00.455Z,20.01
2019-04-26T11:35:57.961Z,20.02
2019-04-26T11:36:58.009Z,20.02
2019-04-26T11:37:57.936Z,20.03
2019-04-26T11:39:01.286Z,20.01
2019-04-26T11:39:58.892Z,20.01
2019-04-26T11:41:05.830Z,20.01
2019-04-26T11:41:58.870Z,20.01
2019-04-26T11:42:57.860Z,20.02
2019-04-26T11:43:57.854Z,19.99
2019-04-26T11:45:05.984Z,19.99
2019-04-26T11:46:04.668Z,20.01
2019-04-26T11:47:02.594Z,19.99
2019-04-26T11:47:57.801Z,19.99
2019-04-26T11:48:59.153Z,19.99
2019-04-26T11:49:57.816Z,19.98
2019-04-26T11:50:57.771Z,19.98
2019-04-26T11:51:58.699Z,19.96
2019-04-26T11:52:57.754Z,19.98
2019-04-26T11:53:57.740Z,19.99
2019-04-26T11:54:57.758Z,19.96
2019-04-26T11:56:00.296Z,19.98
2019-04-26T11:56:58.706Z,19.99
2019-04-26T11:57:57.722Z,19.98
2019-04-26T11:58:58.387Z,19.99
2019-04-26T11:59:57.679Z,19.98
2019-04-26T12:00:57.665Z,19.99
2019-04-26T12:01:57.655Z,19.99
2019-04-26T12:02:57.685Z,19.98
2019-04-26T12:03:59.428Z,20.01
2019-04-26T12:04:59.598Z,20.01
2019-04-26T12:05:57.608Z,19.99
2019-04-26T12:06:57.599Z,19.99
2019-04-26T12:07:57.622Z,20.01
2019-04-26T12:08:57.604Z,19.99
2019-04-26T12:09:57.574Z,19.99
2019-04-26T12:10:57.559Z,20.01
2019-04-26T12:12:04.333Z,19.98
2019-04-26T12:13:05.566Z,19.99
2019-04-26T12:13:59.311Z,19.99
2019-04-26T12:14:57.517Z,19.98
2019-04-26T12:15:57.504Z,19.99
2019-04-26T12:16:59.625Z,19.98
2019-04-26T12:17:58.854Z,19.98
2019-04-26T12:18:57.470Z,19.98
2019-04-26T12:19:57.473Z,19.99
2019-04-26T12:21:00.991Z,19.98
2019-04-26T12:21:57.438Z,19.98
2019-04-26T12:22:57.462Z,19.99
2019-04-26T12:23:57.416Z,19.96
2019-04-26T12:24:57.410Z,19.98
2019-04-26T12:25:57.468Z,19.98
2019-04-26T12:26:57.581Z,19.98
2019-04-26T12:27:57.534Z,19.96
2019-04-26T12:28:57.366Z,19.95
2019-04-26T12:29:57.382Z,19.98
2019-04-26T12:30:58.477Z,19.95
2019-04-26T12:31:57.366Z,19.96
2019-04-26T12:32:57.323Z,19.99
2019-04-26T12:33:57.313Z,19.96
2019-04-26T12:34:57.336Z,19.96
2019-04-26T12:35:57.501Z,19.96
2019-04-26T12:36:57.279Z,19.96
2019-04-26T12:37:57.265Z,19.96
2019-04-26T12:38:58.268Z,19.96
2019-04-26T12:39:57.247Z,19.96
2019-04-26T12:40:57.267Z,19.96
2019-04-26T12:41:57.251Z,19.95
2019-04-26T12:42:57.211Z,19.96
2019-04-26T12:43:59.656Z,19.96
2019-04-26T12:44:58.219Z,19.96
2019-04-26T12:45:57.178Z,19.95
2019-04-26T12:46:59.317Z,19.96
2019-04-26T12:47:58.154Z,19.98
2019-04-26T12:48:57.143Z,19.98
2019-04-26T12:49:58.921Z,19.98
2019-04-26T12:50:57.122Z,19.99
2019-04-26T12:51:57.119Z,19.99